Time;durP1;ratioP1;P1;durP2;ratioP2;P2;SDS_P1;SDS_P2;PMS_P1;PMS_P2;Temp;Humidity;BMP_temperature;BMP_pressure;BME280_temperature;BME280_humidity;BME280_pressure;Samples;Min_cycle;Max_cycle;Signal;HPM_P1;HPM_P2
2021/09/04 00:01:34;;;;;;;6.07;1.60;;;16.70;83.40;;;;;;5105832;27;20131;-62
2021/09/04 00:04:00;;;;;;;3.67;1.77;;;16.80;82.60;;;;;;5102459;27;20126;-63
2021/09/04 00:06:26;;;;;;;3.90;1.80;;;16.70;81.80;;;;;;5103148;27;20050;-64
2021/09/04 00:08:51;;;;;;;5.20;1.95;;;16.70;81.60;;;;;;5107289;27;20946;-63
2021/09/04 00:11:17;;;;;;;5.10;1.92;;;16.60;81.50;;;;;;5121237;27;20087;-63
2021/09/04 00:13:43;;;;;;;4.38;1.75;;;16.60;81.40;;;;;;5103111;27;20084;-63
2021/09/04 00:16:10;;;;;;;5.47;2.17;;;16.60;81.80;;;;;;5118750;27;20821;-63
2021/09/04 00:18:36;;;;;;;4.88;1.98;;;16.50;81.90;;;;;;5105713;27;20081;-63
2021/09/04 00:21:01;;;;;;;5.55;2.65;;;16.50;82.20;;;;;;5118992;27;20161;-63
2021/09/04 00:23:28;;;;;;;5.15;2.10;;;16.50;84.00;;;;;;5118122;27;20031;-63
2021/09/04 00:25:54;;;;;;;4.47;2.20;;;16.50;83.80;;;;;;5105332;27;20046;-63
2021/09/04 00:28:20;;;;;;;3.13;1.48;;;16.50;83.60;;;;;;5104903;27;20398;-63
2021/09/04 00:30:46;;;;;;;6.32;1.85;;;16.50;83.40;;;;;;5100971;27;20115;-63
2021/09/04 00:33:11;;;;;;;5.72;2.10;;;16.50;82.90;;;;;;5119668;27;20035;-63
2021/09/04 00:35:37;;;;;;;4.05;1.67;;;16.50;83.20;;;;;;5120156;27;20043;-63
2021/09/04 00:38:03;;;;;;;3.25;1.48;;;16.50;82.80;;;;;;5102350;27;20035;-63
2021/09/04 00:40:28;;;;;;;7.10;1.92;;;16.50;82.20;;;;;;5117457;27;20134;-63
2021/09/04 00:42:54;;;;;;;5.53;1.98;;;16.50;81.90;;;;;;5084745;27;20051;-63
2021/09/04 00:45:20;;;;;;;4.45;1.90;;;16.50;82.50;;;;;;5118140;27;20066;-63
2021/09/04 00:48:00;;;;;;;3.20;1.83;;;16.50;82.60;;;;;;5086636;27;20071;-63
2021/09/04 00:50:28;;;;;;;6.05;2.45;;;16.60;83.20;;;;;;5118298;27;20039;-63
2021/09/04 00:52:54;;;;;;;3.25;1.55;;;16.70;83.30;;;;;;5119396;27;20043;-63
2021/09/04 00:55:21;;;;;;;4.65;2.50;;;16.70;82.70;;;;;;5102929;27;20046;-63
2021/09/04 00:57:47;;;;;;;9.20;2.28;;;16.80;84.30;;;;;;5102577;27;20174;-63
2021/09/04 01:00:14;;;;;;;5.30;1.90;;;16.80;84.40;;;;;;5118021;27;20045;-63
2021/09/04 01:02:39;;;;;;;7.00;2.13;;;16.90;84.00;;;;;;5083742;27;20426;-63
2021/09/04 01:05:06;;;;;;;4.95;1.88;;;17.00;84.60;;;;;;5069024;27;20043;-63
2021/09/04 01:07:33;;;;;;;5.72;2.00;;;17.10;83.50;;;;;;5101009;27;20046;-63
2021/09/04 01:09:58;;;;;;;5.32;2.15;;;17.10;83.00;;;;;;5101137;27;20058;-63
2021/09/04 01:12:25;;;;;;;5.38;1.98;;;17.10;83.50;;;;;;5102284;27;20388;-63
2021/09/04 01:14:50;;;;;;;4.88;2.78;;;17.00;83.30;;;;;;5116908;27;20031;-63
2021/09/04 01:17:16;;;;;;;8.15;1.95;;;17.00;83.90;;;;;;5103905;27;20046;-63
2021/09/04 01:19:41;;;;;;;7.72;2.10;;;17.00;83.90;;;;;;5118555;27;20059;-63
2021/09/04 01:22:08;;;;;;;5.97;2.03;;;17.10;83.10;;;;;;5118600;27;20047;-63
2021/09/04 01:24:34;;;;;;;4.13;2.38;;;17.10;82.50;;;;;;5105184;27;20390;-63
2021/09/04 01:27:00;;;;;;;3.35;2.10;;;17.10;83.30;;;;;;5116938;27;20043;-63
2021/09/04 01:29:26;;;;;;;5.10;2.65;;;17.10;84.10;;;;;;5116736;27;20047;-63
2021/09/04 01:31:51;;;;;;;5.03;2.28;;;17.20;85.20;;;;;;5100445;27;20122;-64
2021/09/04 01:34:18;;;;;;;6.40;1.83;;;17.20;84.60;;;;;;5118922;27;20027;-63
2021/09/04 01:36:44;;;;;;;3.35;2.00;;;17.20;83.40;;;;;;5104607;27;20043;-63
2021/09/04 01:39:10;;;;;;;6.22;1.58;;;17.20;84.20;;;;;;5100633;27;20054;-63
2021/09/04 01:41:40;;;;;;;6.00;2.22;;;17.20;83.10;;;;;;5102834;28;20130;-63
2021/09/04 01:44:06;;;;;;;6.30;2.33;;;17.20;81.60;;;;;;5103000;27;20124;-67
2021/09/04 01:46:33;;;;;;;5.50;2.50;;;17.10;81.20;;;;;;5101611;28;20060;-67
2021/09/04 01:48:59;;;;;;;4.95;2.42;;;17.10;81.10;;;;;;5083497;28;20044;-67
2021/09/04 01:51:25;;;;;;;9.63;1.92;;;17.00;81.20;;;;;;5115260;27;20457;-68
2021/09/04 01:53:50;;;;;;;4.28;1.80;;;16.90;80.50;;;;;;5097790;28;20035;-68
2021/09/04 01:56:16;;;;;;;5.70;2.05;;;16.90;80.30;;;;;;5095927;28;20036;-67
2021/09/04 01:58:42;;;;;;;6.20;2.00;;;16.80;80.20;;;;;;5095960;28;20267;-68
2021/09/04 02:01:08;;;;;;;5.55;2.22;;;16.80;80.10;;;;;;5097317;28;20040;-67
2021/09/04 02:03:35;;;;;;;5.90;2.50;;;16.80;80.60;;;;;;5096575;28;20043;-68
2021/09/04 02:06:02;;;;;;;8.55;2.03;;;16.80;80.00;;;;;;5099241;28;20058;-67
2021/09/04 02:08:28;;;;;;;3.53;2.25;;;16.70;79.80;;;;;;5095642;28;20404;-66
2021/09/04 02:10:53;;;;;;;7.80;1.75;;;16.80;81.60;;;;;;5096084;28;20055;-67
2021/09/04 02:13:19;;;;;;;8.50;2.13;;;16.70;80.30;;;;;;5099447;28;20043;-67
2021/09/04 02:15:45;;;;;;;6.25;2.40;;;16.70;79.50;;;;;;5097658;28;20044;-68
2021/09/04 02:18:11;;;;;;;7.63;2.22;;;16.60;80.10;;;;;;5097176;28;20035;-67
2021/09/04 02:20:36;;;;;;;6.55;2.40;;;16.70;79.50;;;;;;5096809;28;20131;-67
2021/09/04 02:23:02;;;;;;;6.25;2.35;;;16.60;79.60;;;;;;5082988;28;20044;-66
2021/09/04 02:25:28;;;;;;;8.25;2.15;;;16.70;80.00;;;;;;5096729;28;20047;-67
2021/09/04 02:27:53;;;;;;;4.40;2.17;;;16.60;79.70;;;;;;5099636;28;20532;-66
2021/09/04 02:30:19;;;;;;;5.97;2.33;;;16.60;82.10;;;;;;5097339;28;20051;-67
2021/09/04 02:32:45;;;;;;;7.20;2.17;;;16.60;81.90;;;;;;5098185;28;20050;-66
2021/09/04 02:35:10;;;;;;;6.60;2.10;;;16.60;81.10;;;;;;5096774;28;20039;-66
2021/09/04 02:37:36;;;;;;;6.78;1.65;;;16.60;80.80;;;;;;5098298;28;20051;-67
2021/09/04 02:40:03;;;;;;;5.97;2.03;;;16.60;80.40;;;;;;5096664;28;20040;-67
2021/09/04 02:42:29;;;;;;;4.90;1.90;;;16.60;79.90;;;;;;5095948;28;20369;-66
2021/09/04 02:44:54;;;;;;;4.43;1.90;;;16.60;80.10;;;;;;5096150;28;20118;-66
2021/09/04 02:47:20;;;;;;;4.35;2.10;;;16.50;80.00;;;;;;5111768;28;20058;-66
2021/09/04 02:49:46;;;;;;;4.93;1.88;;;16.50;82.20;;;;;;5101154;28;20047;-67
2021/09/04 02:52:11;;;;;;;4.65;2.15;;;16.50;82.20;;;;;;5098548;28;20035;-66
2021/09/04 02:54:37;;;;;;;5.13;1.85;;;16.60;81.50;;;;;;5104991;27;20098;-67
2021/09/04 02:57:03;;;;;;;7.13;2.60;;;16.70;81.80;;;;;;5103181;27;20047;-67
2021/09/04 02:59:29;;;;;;;5.47;1.73;;;16.70;81.70;;;;;;5103056;27;20038;-66
2021/09/04 03:01:55;;;;;;;5.03;1.90;;;16.70;80.60;;;;;;5121747;27;20043;-66
2021/09/04 03:04:20;;;;;;;8.23;2.47;;;16.70;80.40;;;;;;5121618;27;20114;-67
2021/09/04 03:06:46;;;;;;;3.42;1.95;;;16.70;81.30;;;;;;5120323;27;20042;-67
2021/09/04 03:09:12;;;;;;;10.15;2.40;;;16.70;81.40;;;;;;5103101;27;20589;-67
2021/09/04 03:11:37;;;;;;;6.80;1.80;;;16.70;81.60;;;;;;5120416;27;20039;-66
2021/09/04 03:14:03;;;;;;;7.32;1.90;;;16.80;81.20;;;;;;5087391;27;20035;-66
2021/09/04 03:16:29;;;;;;;6.20;1.70;;;16.70;81.30;;;;;;5102371;27;20481;-66
2021/09/04 03:18:55;;;;;;;6.38;1.83;;;16.80;81.50;;;;;;5103098;27;20035;-66
2021/09/04 03:21:21;;;;;;;9.25;2.40;;;16.70;81.00;;;;;;5119539;27;20127;-66
2021/09/04 03:23:46;;;;;;;5.28;2.20;;;16.70;81.00;;;;;;5105423;27;20035;-66
2021/09/04 03:26:12;;;;;;;5.65;2.22;;;16.70;81.70;;;;;;5103950;27;20031;-66
2021/09/04 03:28:38;;;;;;;9.07;2.15;;;16.70;82.30;;;;;;5119881;27;20047;-66
2021/09/04 03:31:04;;;;;;;5.95;1.90;;;16.70;81.40;;;;;;5103731;27;20035;-66
2021/09/04 03:33:29;;;;;;;9.02;2.47;;;16.70;82.60;;;;;;5119683;27;20093;-66
2021/09/04 03:35:55;;;;;;;5.18;2.47;;;16.70;83.40;;;;;;5120387;27;20040;-66
2021/09/04 03:38:22;;;;;;;6.60;2.67;;;16.70;81.70;;;;;;5118328;27;20043;-66
2021/09/04 03:40:47;;;;;;;8.18;2.05;;;16.80;81.00;;;;;;5103469;27;20043;-67
2021/09/04 03:43:13;;;;;;;6.68;2.22;;;16.80;80.90;;;;;;5105426;27;20093;-64
2021/09/04 03:45:39;;;;;;;6.93;2.17;;;16.80;81.60;;;;;;5104520;27;20041;-64
2021/09/04 03:48:05;;;;;;;9.30;2.47;;;17.00;82.80;;;;;;5103583;27;20050;-64
2021/09/04 03:50:31;;;;;;;7.57;2.40;;;17.10;82.60;;;;;;5107503;27;20051;-64
2021/09/04 03:52:56;;;;;;;6.18;2.53;;;17.10;81.60;;;;;;5100878;27;20130;-64
2021/09/04 03:55:22;;;;;;;3.47;2.10;;;17.20;83.00;;;;;;5100700;27;20550;-64
2021/09/04 03:57:48;;;;;;;5.57;2.10;;;17.30;83.70;;;;;;5103791;27;20051;-64
2021/09/04 04:00:14;;;;;;;4.22;2.10;;;17.40;84.00;;;;;;5105145;27;20045;-63
2021/09/04 04:02:40;;;;;;;6.47;2.15;;;17.50;83.30;;;;;;5085565;27;20410;-64
2021/09/04 04:05:06;;;;;;;6.55;2.60;;;17.50;83.30;;;;;;5100709;27;20110;-63
2021/09/04 04:07:32;;;;;;;5.18;2.05;;;17.50;84.20;;;;;;5102054;27;20047;-63
2021/09/04 04:09:58;;;;;;;7.93;2.13;;;17.50;82.10;;;;;;5102268;27;20050;-63
2021/09/04 04:12:23;;;;;;;5.10;2.00;;;17.40;80.20;;;;;;5088658;27;20039;-64
2021/09/04 04:14:49;;;;;;;6.65;2.00;;;17.30;79.60;;;;;;5102077;27;20035;-63
2021/09/04 04:17:15;;;;;;;6.10;1.77;;;17.20;79.50;;;;;;5103242;27;20130;-64
2021/09/04 04:19:40;;;;;;;7.47;2.10;;;17.00;79.90;;;;;;5106595;27;20043;-63
2021/09/04 04:22:06;;;;;;;5.88;1.92;;;17.00;79.80;;;;;;5102730;27;20043;-63
2021/09/04 04:24:32;;;;;;;6.57;2.63;;;16.90;80.00;;;;;;5118865;27;20039;-63
2021/09/04 04:26:58;;;;;;;7.97;2.33;;;16.80;79.90;;;;;;5102822;27;20051;-63
2021/09/04 04:29:23;;;;;;;5.40;2.10;;;16.70;80.10;;;;;;5105054;27;20043;-63
2021/09/04 04:31:49;;;;;;;8.77;1.80;;;16.70;80.80;;;;;;5104916;27;20087;-63
2021/09/04 04:34:15;;;;;;;4.68;1.70;;;16.70;80.70;;;;;;5104904;27;20176;-63
2021/09/04 04:36:41;;;;;;;2.90;1.73;;;16.70;80.40;;;;;;5102136;27;20538;-63
2021/09/04 04:39:07;;;;;;;7.88;2.25;;;16.70;81.30;;;;;;5118969;27;20046;-63
2021/09/04 04:41:32;;;;;;;5.30;2.25;;;16.70;81.80;;;;;;5089173;27;20047;-63
2021/09/04 04:43:58;;;;;;;5.43;2.30;;;16.70;81.90;;;;;;5105489;27;20036;-63
2021/09/04 04:46:24;;;;;;;6.38;1.85;;;16.70;83.10;;;;;;5117694;27;22239;-63
2021/09/04 04:48:49;;;;;;;6.63;1.70;;;16.70;82.40;;;;;;5118191;27;20444;-63
2021/09/04 04:51:15;;;;;;;5.63;1.52;;;16.80;81.30;;;;;;5101135;27;20044;-63
2021/09/04 04:53:41;;;;;;;5.20;2.03;;;16.80;80.10;;;;;;5104278;27;20070;-63
2021/09/04 04:56:06;;;;;;;2.83;1.30;;;16.70;81.80;;;;;;5105572;27;20059;-63
2021/09/04 04:58:32;;;;;;;6.13;1.88;;;16.80;82.20;;;;;;5118888;27;20095;-63
2021/09/04 05:00:58;;;;;;;5.68;1.83;;;16.90;81.80;;;;;;5102301;27;20079;-63
2021/09/04 05:03:23;;;;;;;6.70;1.50;;;17.00;81.20;;;;;;5101070;27;20134;-63
2021/09/04 05:05:50;;;;;;;4.68;1.77;;;17.00;80.80;;;;;;5100709;27;20088;-63
2021/09/04 05:08:15;;;;;;;4.00;1.27;;;17.00;82.10;;;;;;5099345;27;20096;-63
2021/09/04 05:10:41;;;;;;;2.60;1.60;;;17.00;81.60;;;;;;5102193;27;20023;-63
2021/09/04 05:13:07;;;;;;;6.63;1.80;;;17.10;81.10;;;;;;5118405;27;20035;-63
2021/09/04 05:15:33;;;;;;;7.90;1.80;;;17.10;80.40;;;;;;5104187;27;20463;-63
2021/09/04 05:17:58;;;;;;;8.65;1.80;;;17.00;79.60;;;;;;5116393;27;20036;-63
2021/09/04 05:20:25;;;;;;;5.72;1.75;;;16.80;79.00;;;;;;5116798;27;20035;-63
2021/09/04 05:22:50;;;;;;;4.13;1.52;;;16.70;79.00;;;;;;5101039;27;20054;-63
2021/09/04 05:25:17;;;;;;;4.13;1.52;;;16.60;79.00;;;;;;5082652;27;20046;-63
2021/09/04 05:27:44;;;;;;;4.05;1.60;;;16.50;78.80;;;;;;5105121;27;20108;-63
2021/09/04 05:30:10;;;;;;;4.78;1.70;;;16.50;79.40;;;;;;5120294;27;20041;-63
2021/09/04 05:32:36;;;;;;;4.05;1.52;;;16.50;79.00;;;;;;5104622;27;20043;-63
2021/09/04 05:35:03;;;;;;;6.68;1.33;;;16.50;79.30;;;;;;5103389;27;20478;-62
2021/09/04 05:37:28;;;;;;;5.85;1.48;;;16.40;79.10;;;;;;5105546;27;20158;-63
2021/09/04 05:39:54;;;;;;;2.53;1.23;;;16.40;78.50;;;;;;5101015;27;20043;-63
2021/09/04 05:42:21;;;;;;;6.07;1.58;;;16.40;78.10;;;;;;5094449;27;20422;-63
2021/09/04 05:44:46;;;;;;;7.15;1.83;;;16.40;78.30;;;;;;5100083;27;22278;-63
2021/09/04 05:47:12;;;;;;;3.92;1.33;;;16.40;78.60;;;;;;5095432;28;20048;-63
2021/09/04 05:49:38;;;;;;;5.38;1.65;;;16.30;78.30;;;;;;5099811;28;20081;-63
2021/09/04 05:52:04;;;;;;;3.72;1.77;;;16.40;78.30;;;;;;5101528;28;20078;-63
2021/09/04 05:54:30;;;;;;;9.27;1.38;;;16.40;78.40;;;;;;5099137;28;20043;-63
2021/09/04 05:56:55;;;;;;;4.30;1.33;;;16.40;79.10;;;;;;5096043;28;20100;-63
2021/09/04 05:59:21;;;;;;;13.10;2.05;;;16.40;78.80;;;;;;5067765;28;20052;-63
2021/09/04 06:01:47;;;;;;;10.52;2.13;;;16.40;80.10;;;;;;5097859;28;20044;-63
2021/09/04 06:04:13;;;;;;;4.47;2.05;;;16.50;79.30;;;;;;5096382;28;20031;-63
2021/09/04 06:06:38;;;;;;;3.20;1.35;;;16.50;78.90;;;;;;5099672;28;20053;-66
2021/09/04 06:09:05;;;;;;;5.00;1.45;;;16.50;78.60;;;;;;5096094;28;20119;-66
2021/09/04 06:11:31;;;;;;;5.53;1.60;;;16.60;79.80;;;;;;5096634;28;20036;-72
2021/09/04 06:13:58;;;;;;;7.20;1.95;;;16.60;78.50;;;;;;5097538;28;20146;-72
2021/09/04 06:16:24;;;;;;;16.88;14.02;;;16.70;79.40;;;;;;5094545;28;20096;-72
2021/09/04 06:18:50;;;;;;;34.97;31.85;;;16.80;80.60;;;;;;5098579;28;20044;-72
2021/09/04 06:21:15;;;;;;;4.35;1.50;;;17.00;83.50;;;;;;5101979;28;20480;-72
2021/09/04 06:23:41;;;;;;;3.10;1.35;;;17.40;82.70;;;;;;5098809;28;20070;-72
2021/09/04 06:26:07;;;;;;;6.88;1.88;;;17.60;79.10;;;;;;5098433;28;20488;-72
2021/09/04 06:28:33;;;;;;;4.43;1.58;;;17.60;77.80;;;;;;5079054;28;20124;-72
2021/09/04 06:30:58;;;;;;;5.57;1.75;;;17.60;76.70;;;;;;5098193;28;20434;-72
2021/09/04 06:33:24;;;;;;;7.05;1.65;;;17.50;77.60;;;;;;5099598;28;20046;-72
2021/09/04 06:35:50;;;;;;;4.72;1.60;;;17.40;76.70;;;;;;5084284;28;20035;-71
2021/09/04 06:38:15;;;;;;;5.75;2.83;;;17.40;77.30;;;;;;5100953;28;20051;-70
2021/09/04 06:40:41;;;;;;;6.38;1.63;;;17.40;79.40;;;;;;5079718;28;20518;-68
2021/09/04 06:43:07;;;;;;;6.07;1.40;;;17.50;77.90;;;;;;5083358;28;20043;-68
2021/09/04 06:45:32;;;;;;;7.68;1.83;;;17.40;76.30;;;;;;5101446;28;20043;-67
2021/09/04 06:47:58;;;;;;;4.13;2.00;;;17.40;76.50;;;;;;5100099;28;20167;-64
2021/09/04 06:50:25;;;;;;;4.88;2.08;;;17.40;78.20;;;;;;5097684;28;20396;-64
2021/09/04 06:52:51;;;;;;;6.75;1.52;;;17.60;79.70;;;;;;5100590;28;20048;-64
2021/09/04 06:55:17;;;;;;;5.90;2.03;;;17.90;79.20;;;;;;5098256;28;20079;-64
2021/09/04 06:57:42;;;;;;;3.83;1.25;;;18.10;76.90;;;;;;5098162;28;20103;-64
2021/09/04 07:00:09;;;;;;;4.95;1.77;;;18.20;75.30;;;;;;5096458;28;20480;-64
2021/09/04 07:02:35;;;;;;;5.82;1.65;;;18.30;74.40;;;;;;5084078;28;20063;-65
2021/09/04 07:05:00;;;;;;;3.70;1.50;;;18.40;73.80;;;;;;5097516;28;20507;-65
2021/09/04 07:07:26;;;;;;;7.40;2.08;;;18.60;73.60;;;;;;5098542;28;20040;-65
2021/09/04 07:09:52;;;;;;;6.30;2.00;;;18.70;73.10;;;;;;5098785;28;20032;-64
2021/09/04 07:12:18;;;;;;;10.68;3.92;;;18.80;72.30;;;;;;5099442;28;20039;-65
2021/09/04 07:14:43;;;;;;;20.30;4.78;;;18.90;72.10;;;;;;5096550;28;20055;-64
2021/09/04 07:17:09;;;;;;;11.73;4.40;;;19.10;71.60;;;;;;5096563;28;20039;-64
2021/09/04 07:19:35;;;;;;;11.10;4.80;;;19.40;71.00;;;;;;5096459;28;20043;-65
2021/09/04 07:22:00;;;;;;;13.10;4.55;;;19.70;70.20;;;;;;5098200;28;20064;-66
2021/09/04 07:24:26;;;;;;;7.15;2.75;;;19.80;69.50;;;;;;5098867;28;20043;-66
2021/09/04 07:26:52;;;;;;;6.30;3.00;;;19.90;68.70;;;;;;5098716;28;20108;-66
2021/09/04 07:29:17;;;;;;;7.78;2.45;;;19.90;68.70;;;;;;5098554;28;20039;-65
2021/09/04 07:31:43;;;;;;;6.55;2.00;;;19.90;69.20;;;;;;5095872;28;20047;-66
2021/09/04 07:34:09;;;;;;;36.92;8.35;;;20.00;69.40;;;;;;5101216;28;20038;-64
2021/09/04 07:36:34;;;;;;;33.00;6.32;;;20.10;69.50;;;;;;5097052;28;20043;-64
2021/09/04 07:39:00;;;;;;;17.98;5.95;;;20.10;68.70;;;;;;5099601;28;20157;-65
2021/09/04 07:41:26;;;;;;;11.52;3.67;;;20.20;68.10;;;;;;5100242;28;20495;-72
2021/09/04 07:43:51;;;;;;;11.23;3.80;;;20.30;67.90;;;;;;5100663;28;20043;-68
2021/09/04 07:46:17;;;;;;;10.68;3.28;;;20.30;67.90;;;;;;5106480;27;20156;-67
2021/09/04 07:48:43;;;;;;;6.28;2.65;;;20.40;68.20;;;;;;5095591;27;20047;-67
2021/09/04 07:51:08;;;;;;;9.10;2.13;;;20.40;68.20;;;;;;5090765;27;20035;-67
2021/09/04 07:53:34;;;;;;;5.78;2.30;;;20.40;68.20;;;;;;5079262;27;22211;-67
2021/09/04 07:56:00;;;;;;;4.95;1.90;;;20.40;68.00;;;;;;5104723;27;20041;-66
2021/09/04 07:58:25;;;;;;;6.72;2.05;;;20.50;67.90;;;;;;5106175;27;20406;-67
2021/09/04 08:00:51;;;;;;;9.65;2.20;;;20.50;68.20;;;;;;5108703;27;20039;-67
2021/09/04 08:03:17;;;;;;;8.02;2.53;;;20.50;67.50;;;;;;5104695;27;20046;-68
2021/09/04 08:05:42;;;;;;;4.57;1.98;;;20.60;67.70;;;;;;5104087;27;20043;-69
2021/09/04 08:08:08;;;;;;;3.72;1.73;;;20.60;67.80;;;;;;5090839;27;20039;-69
2021/09/04 08:10:34;;;;;;;5.55;2.63;;;20.70;67.80;;;;;;5105030;27;20043;-72
2021/09/04 08:12:59;;;;;;;7.57;2.28;;;20.70;67.40;;;;;;5090410;27;20062;-70
2021/09/04 08:15:25;;;;;;;5.45;2.88;;;20.70;67.70;;;;;;5102264;27;20142;-69
2021/09/04 08:17:51;;;;;;;9.65;3.13;;;20.70;67.10;;;;;;5088097;27;20046;-70
2021/09/04 08:20:16;;;;;;;7.00;3.03;;;20.70;67.00;;;;;;5092099;27;20126;-69
2021/09/04 08:22:42;;;;;;;6.03;2.80;;;20.80;66.80;;;;;;5090567;27;20122;-69
2021/09/04 08:25:08;;;;;;;5.55;2.92;;;20.80;66.70;;;;;;5084570;27;20043;-68
2021/09/04 08:27:34;;;;;;;10.07;3.03;;;20.80;66.50;;;;;;5103936;27;20118;-69
2021/09/04 08:29:59;;;;;;;7.88;3.17;;;20.80;66.20;;;;;;5108701;27;20062;-68
2021/09/04 08:32:25;;;;;;;10.25;4.22;;;20.80;66.00;;;;;;5085811;27;20185;-70
2021/09/04 08:34:51;;;;;;;9.65;3.85;;;20.70;65.90;;;;;;5105685;27;20379;-69
2021/09/04 08:37:18;;;;;;;11.25;5.03;;;20.70;65.90;;;;;;5089383;27;21254;-69
2021/09/04 08:39:43;;;;;;;8.77;4.97;;;20.70;65.70;;;;;;5101435;27;20137;-68
2021/09/04 08:42:10;;;;;;;13.52;4.90;;;20.80;65.60;;;;;;5089066;27;20406;-69
2021/09/04 08:44:37;;;;;;;13.32;5.85;;;20.80;66.00;;;;;;5103428;27;20093;-69
2021/09/04 08:47:03;;;;;;;13.20;5.07;;;20.70;66.10;;;;;;5117024;27;20696;-68
2021/09/04 08:49:29;;;;;;;13.02;5.93;;;20.70;67.50;;;;;;5088208;27;20163;-68
2021/09/04 08:51:54;;;;;;;15.13;6.20;;;20.70;67.40;;;;;;5102239;27;20043;-68
2021/09/04 08:54:20;;;;;;;11.93;5.30;;;20.70;66.80;;;;;;5118240;27;20038;-69
2021/09/04 08:56:46;;;;;;;11.40;6.50;;;20.70;67.50;;;;;;5083828;27;20046;-68
2021/09/04 08:59:11;;;;;;;13.50;6.85;;;20.70;67.50;;;;;;5099740;27;20040;-66
2021/09/04 09:01:45;;;;;;;28.20;16.55;;;20.80;66.90;;;;;;5105465;27;20542;-67
2021/09/04 09:04:15;;;;;;;21.45;13.10;;;20.90;65.70;;;;;;5101182;27;20034;-67
2021/09/04 09:06:42;;;;;;;13.27;8.40;;;20.90;65.10;;;;;;5105330;27;20356;-67
2021/09/04 09:09:17;;;;;;;16.13;9.75;;;21.00;64.00;;;;;;5101851;27;20036;-67
2021/09/04 09:11:42;;;;;;;11.20;6.55;;;21.00;63.70;;;;;;5118610;27;20044;-67
2021/09/04 09:14:08;;;;;;;15.95;7.65;;;21.10;63.40;;;;;;5089423;27;20098;-68
2021/09/04 09:16:35;;;;;;;15.38;8.63;;;21.20;63.00;;;;;;5120242;27;20039;-70
2021/09/04 09:19:04;;;;;;;14.63;7.35;;;21.30;63.30;;;;;;5099974;27;20047;-69
2021/09/04 09:21:40;;;;;;;10.77;5.70;;;21.70;63.00;;;;;;5101913;27;20441;-69
2021/09/04 09:24:10;;;;;;;9.82;6.15;;;22.00;61.50;;;;;;5104028;27;20047;-69
2021/09/04 09:26:46;;;;;;;9.18;5.63;;;22.30;60.30;;;;;;5089619;27;20597;-68
2021/09/04 09:29:23;;;;;;;11.38;6.40;;;22.30;59.70;;;;;;5103753;27;20482;-69
2021/09/04 09:31:58;;;;;;;11.55;6.32;;;22.30;60.00;;;;;;5104057;27;20039;-70
2021/09/04 09:34:24;;;;;;;11.00;6.88;;;22.30;59.90;;;;;;5104881;27;20039;-68
2021/09/04 09:36:54;;;;;;;13.38;5.85;;;22.20;60.30;;;;;;5086480;27;20449;-69
2021/09/04 09:39:27;;;;;;;12.02;6.00;;;22.20;59.90;;;;;;5086452;27;20491;-72
2021/09/04 09:41:54;;;;;;;14.52;6.35;;;22.30;60.10;;;;;;5104800;27;20126;-69
2021/09/04 09:44:26;;;;;;;17.75;6.50;;;22.40;60.30;;;;;;5105640;27;20069;-70
2021/09/04 09:46:55;;;;;;;11.57;6.10;;;22.40;60.50;;;;;;5085992;27;20051;-69
2021/09/04 09:49:29;;;;;;;13.43;5.65;;;22.60;60.10;;;;;;5097759;27;20071;-68
2021/09/04 09:52:04;;;;;;;9.30;5.72;;;22.60;60.10;;;;;;5086638;27;20031;-69
2021/09/04 09:54:31;;;;;;;9.60;4.85;;;22.60;60.20;;;;;;5104592;27;20047;-69
2021/09/04 09:57:02;;;;;;;8.75;5.45;;;22.60;59.80;;;;;;5099267;28;20176;-69
2021/09/04 09:59:29;;;;;;;10.82;5.78;;;22.60;59.70;;;;;;5099250;27;20047;-69
2021/09/04 10:01:56;;;;;;;10.13;4.95;;;22.50;59.60;;;;;;5103846;27;20035;-64
2021/09/04 10:04:27;;;;;;;11.20;4.70;;;22.50;59.20;;;;;;5116062;27;20035;-68
2021/09/04 10:06:53;;;;;;;15.20;4.90;;;22.50;59.00;;;;;;5104980;27;20066;-66
2021/09/04 10:09:22;;;;;;;11.75;4.82;;;22.50;59.20;;;;;;5101020;27;20050;-66
2021/09/04 10:11:49;;;;;;;11.77;5.82;;;22.50;58.70;;;;;;5089002;28;20035;-69
2021/09/04 10:14:14;;;;;;;11.20;5.03;;;22.50;58.80;;;;;;5101663;27;20114;-68
2021/09/04 10:16:42;;;;;;;9.80;5.25;;;22.50;58.70;;;;;;5087599;28;20091;-66
2021/09/04 10:19:09;;;;;;;10.13;5.47;;;22.70;58.20;;;;;;5099004;27;20111;-67
2021/09/04 10:21:39;;;;;;;7.38;4.65;;;23.00;58.10;;;;;;5119941;27;20039;-67
2021/09/04 10:24:07;;;;;;;9.93;4.47;;;23.20;58.10;;;;;;5103110;28;20092;-68
2021/09/04 10:26:37;;;;;;;10.20;3.92;;;23.30;56.90;;;;;;5103298;28;20070;-64
2021/09/04 10:29:12;;;;;;;12.20;5.13;;;23.50;56.10;;;;;;5099707;28;20131;-63
2021/09/04 10:31:41;;;;;;;10.10;4.30;;;23.50;56.10;;;;;;5099563;28;20042;-64
2021/09/04 10:34:16;;;;;;;9.57;4.13;;;23.60;56.10;;;;;;5104484;28;20049;-66
2021/09/04 10:36:57;;;;;;;8.25;4.35;;;23.60;55.80;;;;;;5101187;28;20045;-65
2021/09/04 10:39:24;;;;;;;6.70;4.05;;;23.70;55.90;;;;;;5104338;28;20422;-65
2021/09/04 10:41:51;;;;;;;7.75;4.38;;;23.70;55.70;;;;;;5105140;27;20047;-67
2021/09/04 10:44:23;;;;;;;6.75;4.22;;;23.70;55.70;;;;;;5098178;28;20035;-65
2021/09/04 10:46:49;;;;;;;8.07;4.00;;;23.80;55.80;;;;;;5098272;28;20054;-69
2021/09/04 10:49:42;;;;;;;5.78;3.88;;;23.80;55.40;;;;;;5081338;28;20511;-68
2021/09/04 10:52:09;;;;;;;6.93;3.35;;;23.80;55.40;;;;;;5098469;28;20032;-67
2021/09/04 10:55:03;;;;;;;7.32;3.85;;;23.70;55.10;;;;;;5085309;28;20040;-67
2021/09/04 10:57:45;;;;;;;6.00;3.38;;;23.80;55.00;;;;;;5101415;28;20223;-67
2021/09/04 11:00:27;;;;;;;8.07;3.50;;;23.80;55.40;;;;;;5098855;28;20088;-68
2021/09/04 11:02:58;;;;;;;6.32;3.50;;;23.80;55.20;;;;;;5078583;28;20458;-68
2021/09/04 11:05:24;;;;;;;12.32;3.33;;;23.70;55.20;;;;;;5101944;28;20565;-68
2021/09/04 11:08:10;;;;;;;6.25;3.30;;;23.60;55.50;;;;;;5101086;28;20032;-69
2021/09/04 11:10:37;;;;;;;6.97;3.60;;;23.60;55.80;;;;;;5099050;28;20040;-70
2021/09/04 11:13:32;;;;;;;6.10;3.25;;;23.40;56.00;;;;;;5085910;28;20055;-71
2021/09/04 11:16:24;;;;;;;7.00;3.50;;;23.30;56.60;;;;;;5089175;28;20052;-69
2021/09/04 11:18:50;;;;;;;8.82;3.92;;;23.30;57.00;;;;;;5103440;28;20036;-71
2021/09/04 11:21:15;;;;;;;7.95;3.50;;;23.20;56.90;;;;;;5104110;28;20043;-68
2021/09/04 11:23:43;;;;;;;7.47;3.75;;;23.20;56.80;;;;;;5100087;28;20052;-68
2021/09/04 11:26:08;;;;;;;8.75;3.90;;;23.10;57.20;;;;;;5102611;28;20047;-70
2021/09/04 11:28:35;;;;;;;7.68;4.47;;;23.00;56.80;;;;;;5101128;28;20777;-69
2021/09/04 11:31:02;;;;;;;9.75;4.20;;;22.90;56.50;;;;;;5101332;28;20092;-69
2021/09/04 11:33:28;;;;;;;11.07;3.92;;;22.80;57.20;;;;;;5098246;28;20047;-70
2021/09/04 11:35:57;;;;;;;9.25;4.18;;;22.70;57.00;;;;;;5087233;28;20044;-69
2021/09/04 11:38:24;;;;;;;6.85;4.10;;;22.60;56.70;;;;;;5102476;28;20035;-69
2021/09/04 11:40:51;;;;;;;10.25;4.95;;;22.50;57.00;;;;;;5104472;28;20040;-67
2021/09/04 11:43:18;;;;;;;7.32;4.20;;;22.50;57.30;;;;;;5100488;28;20126;-69
2021/09/04 11:45:45;;;;;;;10.13;3.47;;;22.40;57.80;;;;;;5103068;28;20043;-69
2021/09/04 11:48:13;;;;;;;9.52;4.07;;;22.40;58.00;;;;;;5101324;28;20087;-67
2021/09/04 11:50:40;;;;;;;9.18;3.40;;;22.40;57.50;;;;;;5100461;28;20127;-68
2021/09/04 11:53:13;;;;;;;9.70;4.18;;;22.20;57.30;;;;;;5102161;28;20852;-68
2021/09/04 11:55:40;;;;;;;7.97;4.00;;;22.10;57.40;;;;;;5117468;27;20040;-68
2021/09/04 11:58:11;;;;;;;8.38;3.78;;;22.00;57.50;;;;;;5100236;28;20139;-68
2021/09/04 12:00:39;;;;;;;7.72;3.72;;;21.80;57.40;;;;;;5099363;28;20045;-67
2021/09/04 12:03:05;;;;;;;7.82;3.28;;;21.60;57.40;;;;;;5099474;28;20565;-68
2021/09/04 12:05:39;;;;;;;8.82;4.30;;;21.50;57.50;;;;;;5103191;28;20488;-68
2021/09/04 12:08:07;;;;;;;9.00;4.13;;;21.30;57.80;;;;;;5080143;28;20047;-68
2021/09/04 12:10:36;;;;;;;6.30;4.13;;;21.20;58.10;;;;;;5086587;28;20042;-67
2021/09/04 12:13:04;;;;;;;6.05;4.30;;;21.10;58.50;;;;;;5099798;28;20480;-67
2021/09/04 12:15:32;;;;;;;8.95;4.25;;;21.10;59.60;;;;;;5101923;28;20036;-68
2021/09/04 12:18:01;;;;;;;7.95;3.92;;;21.20;59.80;;;;;;5102221;28;20395;-68
2021/09/04 12:20:37;;;;;;;7.13;3.83;;;21.30;58.80;;;;;;5103218;28;20043;-68
2021/09/04 12:23:23;;;;;;;5.05;2.70;;;21.20;58.10;;;;;;5103095;28;20055;-68
2021/09/04 12:25:50;;;;;;;9.25;3.97;;;21.10;58.10;;;;;;5099829;28;20101;-68
2021/09/04 12:28:27;;;;;;;7.88;3.10;;;21.10;59.20;;;;;;5097619;28;20043;-68
2021/09/04 12:30:57;;;;;;;7.25;3.38;;;21.10;58.50;;;;;;5082204;28;20031;-68
2021/09/04 12:33:23;;;;;;;6.88;3.38;;;21.00;58.20;;;;;;5100486;28;20031;-67
2021/09/04 12:35:59;;;;;;;9.20;4.00;;;21.00;59.00;;;;;;5087027;28;20503;-68
2021/09/04 12:38:41;;;;;;;5.80;3.67;;;21.10;59.50;;;;;;5101791;28;20040;-68
2021/09/04 12:41:18;;;;;;;8.07;4.20;;;21.30;58.80;;;;;;5097594;28;20051;-67
2021/09/04 12:43:58;;;;;;;6.25;4.10;;;21.30;59.10;;;;;;5102627;28;20047;-68
2021/09/04 12:46:38;;;;;;;6.03;3.50;;;21.30;59.50;;;;;;5101375;27;20126;-68